createdAt,value
2022-10-04T13:09:32.287Z,3.40
2022-10-04T13:12:14.636Z,4.07
2022-10-04T13:15:00.215Z,2.53
2022-10-04T13:17:41.363Z,2.57
2022-10-04T13:20:32.760Z,2.70
2022-10-04T13:23:05.994Z,2.37
2022-10-04T13:26:03.731Z,2.23
2022-10-04T13:28:39.714Z,4.57
2022-10-04T13:31:15.837Z,1.77
2022-10-04T13:33:52.563Z,2.20
2022-10-04T13:36:29.414Z,3.77
2022-10-04T13:39:38.631Z,3.30
2022-10-04T13:42:26.932Z,1.90
2022-10-04T13:45:18.383Z,1.67
2022-10-04T13:48:14.458Z,2.30
2022-10-04T13:51:00.222Z,3.90
2022-10-04T13:53:56.368Z,3.73
2022-10-04T13:56:52.104Z,1.53
2022-10-04T13:59:32.326Z,2.90
2022-10-04T14:02:45.753Z,2.37
2022-10-04T14:05:58.379Z,2.40
2022-10-04T14:09:02.814Z,3.77
2022-10-04T14:11:54.449Z,3.23
2022-10-04T14:15:08.463Z,3.23
2022-10-04T14:18:13.273Z,1.60
2022-10-04T14:21:20.095Z,3.47
2022-10-04T14:24:24.030Z,1.47
2022-10-04T14:27:21.445Z,2.53
2022-10-04T14:30:19.715Z,4.10
2022-10-04T14:33:19.985Z,3.80
2022-10-04T14:35:54.385Z,2.97
2022-10-04T14:38:39.764Z,2.13
2022-10-04T14:41:41.482Z,2.40
2022-10-04T14:44:40.538Z,2.90
2022-10-04T14:47:28.833Z,1.83
2022-10-04T14:50:09.734Z,3.27
2022-10-04T14:52:52.056Z,2.10
2022-10-04T14:55:52.174Z,3.03
2022-10-04T14:58:29.145Z,4.80
2022-10-04T15:01:13.495Z,2.60
2022-10-04T15:03:55.995Z,2.13
2022-10-04T15:06:40.201Z,2.83
2022-10-04T15:09:36.559Z,2.97
2022-10-04T15:13:08.914Z,2.43
2022-10-04T15:15:33.066Z,1.93
2022-10-04T15:18:06.826Z,1.43
2022-10-04T15:20:47.618Z,1.77
2022-10-04T15:23:30.802Z,2.70
2022-10-04T15:26:03.114Z,4.87
2022-10-04T15:28:52.475Z,3.20
2022-10-04T15:31:28.019Z,4.07
2022-10-04T15:34:06.638Z,4.27
2022-10-04T15:37:09.308Z,2.03
2022-10-04T15:39:59.966Z,4.17
2022-10-04T15:42:31.032Z,3.93
2022-10-04T15:45:24.327Z,3.33
2022-10-04T15:48:06.444Z,4.27
2022-10-04T15:50:38.493Z,5.60
2022-10-04T15:53:25.758Z,3.57
2022-10-04T15:56:24.440Z,2.90
2022-10-04T15:59:24.241Z,1.63
2022-10-04T16:02:09.144Z,3.03
2022-10-04T16:04:45.218Z,1.67
2022-10-04T16:07:41.048Z,2.37
2022-10-04T16:10:14.356Z,2.00
2022-10-04T16:13:07.693Z,1.97
2022-10-04T16:15:39.790Z,2.47
2022-10-04T16:18:36.877Z,3.17
2022-10-04T16:21:12.919Z,1.93
2022-10-04T16:23:44.267Z,2.93
2022-10-04T16:26:14.149Z,3.47
2022-10-04T16:29:19.934Z,3.67
2022-10-04T16:31:56.850Z,2.00
2022-10-04T16:34:57.336Z,2.30
2022-10-04T16:37:34.554Z,2.00
2022-10-04T16:40:06.027Z,3.97
2022-10-04T16:42:49.878Z,3.03
2022-10-04T16:45:37.261Z,3.83
2022-10-04T16:48:23.377Z,2.93
2022-10-04T16:51:15.372Z,4.03
2022-10-04T16:53:51.151Z,3.00
2022-10-04T16:56:22.615Z,2.87
2022-10-04T16:58:53.886Z,3.83
2022-10-04T17:01:38.647Z,3.17
2022-10-04T17:04:26.231Z,3.77
2022-10-04T17:06:58.627Z,3.33
2022-10-04T17:09:31.550Z,5.57
2022-10-04T17:12:15.617Z,3.50
2022-10-04T17:14:57.158Z,2.60
2022-10-04T17:17:36.658Z,4.23
2022-10-04T17:20:16.585Z,6.07
2022-10-04T17:22:55.711Z,2.77
2022-10-04T17:25:32.837Z,6.07
2022-10-04T17:28:15.876Z,2.77
2022-10-04T17:30:52.374Z,6.70
2022-10-04T17:33:35.804Z,3.90
2022-10-04T17:36:34.341Z,7.43
2022-10-04T17:39:21.143Z,5.23
2022-10-04T17:42:03.604Z,4.17
2022-10-04T17:44:48.423Z,3.80
2022-10-04T17:47:24.011Z,4.63
2022-10-04T17:50:17.363Z,6.97
2022-10-04T17:53:08.482Z,6.43
2022-10-04T17:55:47.730Z,5.60
2022-10-04T17:58:21.015Z,7.13
2022-10-04T18:01:02.273Z,8.57
2022-10-04T18:03:38.580Z,12.23
2022-10-04T18:06:20.881Z,11.43
2022-10-04T18:08:56.837Z,10.07
2022-10-04T18:11:31.569Z,10.37
2022-10-04T18:14:04.224Z,9.97
2022-10-04T18:16:45.419Z,6.50
2022-10-04T18:19:37.213Z,8.80
2022-10-04T18:22:15.106Z,6.77
2022-10-04T18:24:46.317Z,9.57
2022-10-04T18:27:23.154Z,15.13
2022-10-04T18:30:14.381Z,23.37
2022-10-04T18:32:48.428Z,31.33
2022-10-04T18:35:28.985Z,33.63
2022-10-04T18:37:59.926Z,34.03
2022-10-04T18:40:34.990Z,29.73
2022-10-04T18:43:03.980Z,29.53
2022-10-04T18:45:34.405Z,32.23
2022-10-04T18:48:15.086Z,32.10
2022-10-04T18:50:47.628Z,27.23
2022-10-04T18:53:40.218Z,29.00
2022-10-04T18:56:12.413Z,27.53
2022-10-04T18:59:24.447Z,30.23
2022-10-04T19:02:10.413Z,46.70
2022-10-04T19:04:49.179Z,25.13
2022-10-04T19:07:20.623Z,20.57
2022-10-04T19:13:31.738Z,19.27
2022-10-04T19:16:16.453Z,17.60
2022-10-04T19:18:57.093Z,17.73
2022-10-04T19:21:32.137Z,20.43
2022-10-04T19:24:44.405Z,17.20
2022-10-04T19:27:21.811Z,18.87
2022-10-04T19:30:04.303Z,15.87
2022-10-04T19:32:44.162Z,15.63
2022-10-04T19:35:23.891Z,15.97
2022-10-04T19:38:01.194Z,17.40
2022-10-04T19:40:39.043Z,17.10
2022-10-04T19:43:12.473Z,15.70
2022-10-04T19:46:03.349Z,14.67
2022-10-04T19:48:38.085Z,17.40
2022-10-04T19:51:12.303Z,15.57
2022-10-04T19:53:46.351Z,12.60
2022-10-04T19:56:19.752Z,14.20
2022-10-04T19:58:56.729Z,13.27
2022-10-04T20:01:27.804Z,11.63
2022-10-04T20:04:11.870Z,11.13
2022-10-04T20:06:49.330Z,12.37
2022-10-04T20:09:31.771Z,12.20
2022-10-04T20:12:01.708Z,11.03
2022-10-04T20:15:11.921Z,11.57
2022-10-04T20:17:42.428Z,12.83
2022-10-04T20:20:11.911Z,10.57
2022-10-04T20:22:58.261Z,10.43
2022-10-04T20:26:01.503Z,10.70
2022-10-04T20:28:42.385Z,13.23
2022-10-04T20:31:13.240Z,10.73
2022-10-04T20:33:51.130Z,8.93
2022-10-04T20:36:52.704Z,9.87
2022-10-04T20:39:59.720Z,11.10
2022-10-04T20:42:34.569Z,7.43
2022-10-04T20:45:07.240Z,8.53
2022-10-04T20:47:47.866Z,8.23
2022-10-04T20:50:36.283Z,8.80
2022-10-04T20:53:08.170Z,12.40
2022-10-04T20:55:40.137Z,6.77
2022-10-04T20:58:28.668Z,6.80
2022-10-04T21:00:58.933Z,9.10
2022-10-04T21:03:27.417Z,7.73
2022-10-04T21:06:06.365Z,9.07
2022-10-04T21:08:34.984Z,7.43
2022-10-04T21:11:08.776Z,7.73
2022-10-04T21:13:43.012Z,7.13
2022-10-04T21:16:11.766Z,9.00
2022-10-04T21:18:40.850Z,9.73
2022-10-04T21:21:12.019Z,11.40
2022-10-04T21:23:40.248Z,9.40
2022-10-04T21:26:21.996Z,8.97
2022-10-04T21:28:53.802Z,9.77
2022-10-04T21:31:22.092Z,9.77
2022-10-04T21:33:50.395Z,9.97
2022-10-04T21:36:20.133Z,11.80
2022-10-04T21:38:48.324Z,10.90
2022-10-04T21:41:16.580Z,10.73
2022-10-04T21:43:44.766Z,10.80
2022-10-04T21:46:17.861Z,10.53
2022-10-04T21:48:48.585Z,11.13
2022-10-04T21:51:16.747Z,12.30
2022-10-04T21:53:46.278Z,11.20
2022-10-04T21:56:14.581Z,11.47
2022-10-04T21:58:42.811Z,12.57
2022-10-04T22:01:11.147Z,14.10
2022-10-04T22:03:39.421Z,10.93
2022-10-04T22:06:07.719Z,12.20
2022-10-04T22:08:35.926Z,11.27
2022-10-04T22:11:07.076Z,11.93
2022-10-04T22:13:35.250Z,11.30
2022-10-04T22:16:03.723Z,10.57
2022-10-04T22:18:32.841Z,10.23
2022-10-04T22:21:01.576Z,11.67
2022-10-04T22:23:33.599Z,12.43
2022-10-04T22:26:03.087Z,11.47
2022-10-04T22:28:35.238Z,10.17
2022-10-04T22:31:03.441Z,11.40
2022-10-04T22:33:34.945Z,10.13
2022-10-04T22:36:14.887Z,10.40
2022-10-04T22:38:45.790Z,10.53
2022-10-04T22:41:15.279Z,10.90
2022-10-04T22:43:45.079Z,12.20
2022-10-04T22:46:16.521Z,10.87
2022-10-04T22:48:45.880Z,10.90
2022-10-04T22:51:15.491Z,10.50
2022-10-04T22:53:45.624Z,13.13
2022-10-04T22:56:15.110Z,10.77
2022-10-04T22:58:44.757Z,11.03
2022-10-04T23:01:15.361Z,11.27
2022-10-04T23:03:47.196Z,11.57
2022-10-04T23:06:16.031Z,10.77
2022-10-04T23:08:44.913Z,10.60
2022-10-04T23:11:14.454Z,10.63
2022-10-04T23:13:44.098Z,11.63
2022-10-04T23:16:15.663Z,11.23
2022-10-04T23:18:43.871Z,11.07
2022-10-04T23:21:32.319Z,10.37
2022-10-04T23:24:17.854Z,10.53
2022-10-04T23:26:47.916Z,11.07
2022-10-04T23:29:19.876Z,10.03
2022-10-04T23:31:49.811Z,9.57
2022-10-04T23:34:20.508Z,12.47
2022-10-04T23:36:50.017Z,10.33
2022-10-04T23:39:25.743Z,9.80
2022-10-04T23:41:54.670Z,11.57
2022-10-04T23:44:26.651Z,10.60
2022-10-04T23:46:55.046Z,13.63
2022-10-04T23:49:23.759Z,10.93
2022-10-04T23:51:58.823Z,10.27
2022-10-04T23:54:27.651Z,9.27
2022-10-04T23:56:55.931Z,9.40
2022-10-04T23:59:26.451Z,11.37
